Airfield :
LOGIN :

Register | Disclaimer

   EN    FR    IT 

 










Legend :    VFR   Marginal VFR   IFR   Intensive IFR   Very Intensive IFR
Visi :
Ceiling :
>= 8 km
>= 3000ft
5 to 8 km
1000 to 3000 ft
1500m to 5 km
500 to 1000 ft
800 to 1500m
200 to 500 ft
< 800m
< 200 ft
Symbols :   Thunderstorms  Fog  Heavy snow  Heavy precipitations  Wind > 20 kt
SIGMETs :     Misc.  Thunderstorms  Icing  Turbulence  Mountain Waves  Volcanic Ashes






- Airport Elevation : 13 ft
- IATA code : SNR


LFRZ - St-Nazaire

CURRENT METAR :
  • 170000Z AUTO 22015KT 9999 BKN013 BKN150 OVC190 10/09 Q1016 NOSIG

EXPIRED METARs :
  • 162330Z AUTO 23013KT 9999 BKN015 BKN041 BKN160 10/09 Q1016 TEMPO BKN010
  • 162300Z AUTO 22013KT 9999 BKN016 BKN022 BKN150 10/09 Q1016 TEMPO 25015G25KT 4000 -SHRA
  • 162230Z AUTO 22013KT 9999 FEW013 OVC022 10/09 Q1016 TEMPO 25015G25KT 4000 -SHRA
  • 162200Z AUTO 22013KT 9999 SCT012 SCT023 BKN045 10/09 Q1016 TEMPO 4000 -SHRA BECMG 25015G25KT

TAF TAF LFRZ
Valid from the 17 at 00:00 until the 18 at 00:00 UTC


162300Z 1700/1724 23010KT 9999 SCT020 BKN080
PROB30
TEMPO 1700/1702 BKN010
TEMPO 1702/1712 24015G25KT 4000 SHRA SCT020TCU
TEMPO 1712/1718 24020G30KT 4000 SHRA SCT020CB
PROB30
TEMPO 1718/1724 -SHRA SCT020TCU



MET'MAP, your aeronautical weather chart ! - Copyright ORBIFLY December 2007 - Disclaimer

ORBIFLY MET'MAP TEAM :

Programming & Development : Alexandra Zaïnal
Concept & original design : Baudouin d'Aumeries
Assistance for programming : Marc-Olivier Méhu
Technical & hardware support : Manuel Goepfert

Contact : metmap@orbifly.com




SOURCES & CREDITS :

   NOAA